createdAt,value
2023-03-05T00:01:06.407Z,102412.06
2023-03-05T00:03:39.908Z,102410.19
2023-03-05T00:06:16.637Z,102407.16
2023-03-05T00:09:03.375Z,102405.28
2023-03-05T00:11:42.988Z,102399.91
2023-03-05T00:14:39.882Z,102399.09
2023-03-05T00:17:15.945Z,102401.09
2023-03-05T00:22:48.796Z,102392.22
2023-03-05T00:25:21.777Z,102384.16
2023-03-05T00:27:58.406Z,102384.16
2023-03-05T00:30:50.367Z,102382.53
2023-03-05T00:36:17.348Z,102388.53
2023-03-05T00:38:54.682Z,102386.44
2023-03-05T00:41:30.959Z,102381.66
2023-03-05T00:49:38.576Z,102375.88
2023-03-05T00:52:19.987Z,102380.75
2023-03-05T00:54:50.507Z,102370.00
2023-03-05T01:03:01.973Z,102366.91
2023-03-05T01:05:37.623Z,102356.44
2023-03-05T01:08:10.787Z,102362.09
2023-03-05T01:10:43.360Z,102359.13
2023-03-05T01:13:14.442Z,102358.91
2023-03-05T01:15:41.832Z,102354.63
2023-03-05T01:18:29.038Z,102347.97
2023-03-05T01:24:04.243Z,102339.38
2023-03-05T01:26:49.994Z,102340.66
2023-03-05T01:32:04.470Z,102332.59
2023-03-05T01:34:43.184Z,102331.78
2023-03-05T01:37:20.585Z,102326.41
2023-03-05T01:39:53.479Z,102320.41
2023-03-05T01:42:25.822Z,102321.53
2023-03-05T01:45:17.588Z,102304.88
2023-03-05T01:47:51.997Z,102305.16
2023-03-05T01:53:27.525Z,102299.78
2023-03-05T01:56:02.820Z,102290.09
2023-03-05T01:58:39.628Z,102288.69
2023-03-05T02:01:27.750Z,102291.97
2023-03-05T02:04:03.131Z,102279.91
2023-03-05T02:06:33.992Z,102272.97
2023-03-05T02:09:13.306Z,102277.84
2023-03-05T02:11:52.182Z,102274.81
2023-03-05T02:17:20.740Z,102263.88
2023-03-05T02:19:55.907Z,102259.78
2023-03-05T02:22:32.134Z,102256.59
2023-03-05T02:30:42.188Z,102241.22
2023-03-05T02:33:23.573Z,102237.25
2023-03-05T02:36:07.072Z,102235.97
2023-03-05T02:41:32.615Z,102229.78
2023-03-05T02:44:09.536Z,102228.38
2023-03-05T02:46:44.322Z,102234.84
2023-03-05T02:49:17.359Z,102226.78
2023-03-05T02:51:55.874Z,102220.59
2023-03-05T02:54:42.168Z,102225.97
2023-03-05T02:57:16.381Z,102210.63
2023-03-05T02:59:50.010Z,102203.94
2023-03-05T03:05:04.830Z,102204.16
2023-03-05T03:10:23.729Z,102194.00
2023-03-05T03:13:26.577Z,102186.50
2023-03-05T03:16:28.610Z,102184.44
2023-03-05T03:19:07.068Z,102175.56
2023-03-05T03:21:46.999Z,102175.84
2023-03-05T03:24:25.464Z,102173.28
2023-03-05T03:30:07.321Z,102167.56
2023-03-05T03:32:38.508Z,102168.56
2023-03-05T03:38:18.622Z,102158.41
2023-03-05T03:40:53.106Z,102156.00
2023-03-05T03:43:30.521Z,102155.72
2023-03-05T03:54:36.721Z,102134.28
2023-03-05T03:57:10.790Z,102144.59
2023-03-05T03:59:56.019Z,102138.38
2023-03-05T04:02:25.535Z,102134.28
2023-03-05T04:05:03.935Z,102141.06
2023-03-05T04:07:42.748Z,102139.00
2023-03-05T04:10:25.183Z,102135.69
2023-03-05T04:13:04.706Z,102128.72
2023-03-05T04:15:41.093Z,102118.75
2023-03-05T04:23:37.408Z,102120.44
2023-03-05T04:26:27.817Z,102117.25
2023-03-05T04:29:01.024Z,102119.16
2023-03-05T04:31:32.890Z,102108.19
2023-03-05T04:34:05.045Z,102106.63
2023-03-05T04:36:39.265Z,102112.78
2023-03-05T04:39:21.858Z,102109.81
2023-03-05T04:41:55.732Z,102108.41
2023-03-05T04:44:27.126Z,102105.41
2023-03-05T04:47:01.547Z,102103.31
2023-03-05T04:49:37.435Z,102097.63
2023-03-05T04:54:55.578Z,102091.59
2023-03-05T04:57:37.464Z,102091.88
2023-03-05T05:00:09.657Z,102081.91
2023-03-05T05:11:34.813Z,102082.19
2023-03-05T05:14:02.585Z,102077.16
2023-03-05T05:16:34.880Z,102076.94
2023-03-05T05:19:13.846Z,102073.16
2023-03-05T05:21:43.882Z,102061.78
2023-03-05T05:24:16.046Z,102059.59
2023-03-05T05:32:30.147Z,102059.72
2023-03-05T05:37:51.156Z,102062.22
2023-03-05T05:43:25.676Z,102049.25
2023-03-05T05:48:57.723Z,102053.63
2023-03-05T05:51:36.431Z,102050.16
2023-03-05T05:54:07.893Z,102051.88
2023-03-05T05:56:53.141Z,102045.19
2023-03-05T05:59:25.567Z,102043.91
2023-03-05T06:01:55.316Z,102040.41
2023-03-05T06:04:26.586Z,102043.91
2023-03-05T06:07:07.767Z,102039.03
2023-03-05T06:09:45.662Z,102038.69
2023-03-05T06:12:21.880Z,102036.84
2023-03-05T06:14:59.933Z,102034.94
2023-03-05T06:20:18.901Z,102039.19
2023-03-05T06:23:01.425Z,102032.81
2023-03-05T06:28:23.249Z,102025.88
2023-03-05T06:33:54.254Z,102025.25
2023-03-05T06:36:30.226Z,102025.75
2023-03-05T06:39:00.604Z,102030.84
2023-03-05T06:41:35.240Z,102027.53
2023-03-05T06:44:03.445Z,102028.63
2023-03-05T06:46:41.472Z,102035.91
2023-03-05T06:49:11.737Z,102030.84
2023-03-05T06:51:49.376Z,102032.59
2023-03-05T07:00:04.799Z,102024.25
2023-03-05T07:05:29.415Z,102026.81
2023-03-05T07:14:33.644Z,102027.47
2023-03-05T07:17:02.900Z,102024.47
2023-03-05T07:19:41.035Z,102018.81
2023-03-05T07:22:28.461Z,102021.50
2023-03-05T07:28:15.841Z,102030.53
2023-03-05T07:30:45.980Z,102017.09
2023-03-05T07:33:16.319Z,102022.63
2023-03-05T07:35:56.133Z,102023.13
2023-03-05T07:38:25.536Z,102024.13
2023-03-05T07:40:53.576Z,102028.09
2023-03-05T07:43:21.809Z,102022.41
2023-03-05T07:45:58.192Z,102023.97
2023-03-05T07:48:31.093Z,102014.53
2023-03-05T07:51:11.386Z,102025.44
2023-03-05T07:53:43.074Z,102021.34
2023-03-05T07:56:15.622Z,102019.63
2023-03-05T07:58:48.939Z,102014.09
2023-03-05T08:01:23.271Z,102019.97
2023-03-05T08:03:58.263Z,102007.19
2023-03-05T08:06:26.218Z,102013.56
2023-03-05T08:08:52.807Z,101998.50
2023-03-05T08:11:20.714Z,101998.00
2023-03-05T08:13:48.750Z,102009.75
2023-03-05T08:16:19.212Z,102007.53
2023-03-05T08:18:46.748Z,102002.00
2023-03-05T08:21:22.441Z,102000.94
2023-03-05T08:23:49.608Z,102000.94
2023-03-05T08:26:20.659Z,102002.19
2023-03-05T08:28:47.498Z,101994.75
2023-03-05T08:31:15.897Z,101997.81
2023-03-05T08:33:42.792Z,101993.06
2023-03-05T08:36:10.016Z,101990.41
2023-03-05T08:38:36.888Z,101993.78
2023-03-05T08:41:04.176Z,101989.00
2023-03-05T08:43:32.622Z,101985.06
2023-03-05T08:46:02.545Z,101976.50
2023-03-05T08:48:30.531Z,101968.91
2023-03-05T08:51:21.906Z,101968.72
2023-03-05T08:53:48.596Z,101968.72
2023-03-05T08:56:23.346Z,101965.09
2023-03-05T08:58:54.098Z,101959.88
2023-03-05T09:01:27.778Z,101955.13
2023-03-05T09:04:01.860Z,101958.75
2023-03-05T09:09:18.610Z,101965.91
2023-03-05T09:11:48.649Z,101959.72
2023-03-05T09:14:27.038Z,101960.38
2023-03-05T09:17:03.703Z,101960.84
2023-03-05T09:19:32.717Z,101956.72
2023-03-05T09:22:01.461Z,101964.50
2023-03-05T09:24:36.686Z,101967.81
2023-03-05T09:27:09.896Z,101954.66
2023-03-05T09:29:37.648Z,101957.03
2023-03-05T09:32:05.776Z,101958.16
2023-03-05T09:34:37.380Z,101955.31
2023-03-05T09:37:09.265Z,101954.66
2023-03-05T09:39:37.151Z,101950.06
2023-03-05T09:42:24.172Z,101949.56
2023-03-05T09:47:55.054Z,101947.53
2023-03-05T09:50:38.280Z,101955.31
2023-03-05T09:53:56.054Z,101943.09
2023-03-05T09:56:32.021Z,101946.56
2023-03-05T09:59:04.792Z,101945.13
2023-03-05T10:01:41.781Z,101941.47
2023-03-05T10:04:18.741Z,101940.03
2023-03-05T10:06:55.861Z,101931.94
2023-03-05T10:09:44.585Z,101937.53
2023-03-05T10:12:26.466Z,101930.69
2023-03-05T10:14:55.650Z,101934.03
2023-03-05T10:17:41.541Z,101929.56
2023-03-05T10:20:27.378Z,101923.53
2023-03-05T10:23:04.582Z,101920.19
2023-03-05T10:25:59.682Z,101915.06
2023-03-05T10:28:43.941Z,101911.56
2023-03-05T10:31:39.853Z,101915.38
2023-03-05T10:34:55.351Z,101911.81
2023-03-05T10:37:36.846Z,101901.03
2023-03-05T10:40:18.798Z,101893.25
2023-03-05T10:42:56.402Z,101895.00
2023-03-05T10:45:30.438Z,101898.59
2023-03-05T10:48:07.542Z,101891.59
2023-03-05T10:50:40.930Z,101893.78
2023-03-05T10:55:45.093Z,101884.00
2023-03-05T10:58:14.461Z,101878.84
2023-03-05T11:00:57.685Z,101879.00
2023-03-05T11:03:25.346Z,101870.41
2023-03-05T11:06:00.784Z,101867.41
2023-03-05T11:08:32.715Z,101863.25
2023-03-05T11:11:05.216Z,101861.59
2023-03-05T11:13:33.906Z,101856.31
2023-03-05T11:16:04.200Z,101854.22
2023-03-05T11:18:34.768Z,101851.16
2023-03-05T11:21:11.847Z,101849.72
2023-03-05T11:23:38.976Z,101843.72
2023-03-05T11:26:06.499Z,101839.91
2023-03-05T11:28:35.055Z,101831.31
2023-03-05T11:31:03.935Z,101824.59
2023-03-05T11:33:32.449Z,101822.13
2023-03-05T11:36:21.820Z,101819.25
2023-03-05T11:39:17.770Z,101826.16
2023-03-05T11:41:50.276Z,101820.44
2023-03-05T11:44:23.000Z,101817.81
2023-03-05T11:46:54.053Z,101805.22
2023-03-05T11:49:25.925Z,101810.06
2023-03-05T11:52:00.292Z,101806.75
2023-03-05T11:54:34.160Z,101802.94
2023-03-05T11:57:02.545Z,101798.66
2023-03-05T11:59:35.177Z,101792.56
2023-03-05T12:02:01.765Z,101788.88
2023-03-05T12:04:31.313Z,101782.00
2023-03-05T12:07:01.807Z,101779.63
2023-03-05T12:09:43.213Z,101777.06
2023-03-05T12:12:14.753Z,101775.78
2023-03-05T12:14:51.316Z,101770.72
2023-03-05T12:17:29.485Z,101768.34
2023-03-05T12:20:06.309Z,101760.91
2023-03-05T12:22:38.312Z,101750.19
2023-03-05T12:25:24.825Z,101746.69
2023-03-05T12:27:51.493Z,101746.03
2023-03-05T12:30:42.345Z,101751.00
2023-03-05T12:33:39.694Z,101734.41
2023-03-05T12:36:19.460Z,101732.84
2023-03-05T12:38:55.523Z,101723.13
2023-03-05T12:41:23.630Z,101718.97
2023-03-05T12:44:06.389Z,101714.81
2023-03-05T12:46:36.053Z,101713.69
2023-03-05T12:49:18.341Z,101714.94
2023-03-05T12:51:47.727Z,101706.16
2023-03-05T12:54:35.317Z,101704.00
2023-03-05T12:57:06.267Z,101703.00
2023-03-05T12:59:44.595Z,101693.31
2023-03-05T13:02:34.115Z,101688.34
2023-03-05T13:05:06.504Z,101688.22
2023-03-05T13:07:33.291Z,101678.75
2023-03-05T13:10:00.379Z,101679.09
2023-03-05T13:12:31.228Z,101666.22
2023-03-05T13:15:01.963Z,101668.16
2023-03-05T13:17:38.333Z,101665.91
2023-03-05T13:20:34.217Z,101656.63
2023-03-05T13:23:21.416Z,101651.34
2023-03-05T13:26:01.463Z,101654.06
2023-03-05T13:28:29.295Z,101650.91
2023-03-05T13:31:02.036Z,101640.19
2023-03-05T13:33:31.953Z,101634.56
2023-03-05T13:36:06.804Z,101641.88
2023-03-05T13:38:42.467Z,101629.69
2023-03-05T13:41:23.173Z,101628.47
2023-03-05T13:43:54.462Z,101620.69
2023-03-05T13:46:25.462Z,101620.00
2023-03-05T13:48:52.087Z,101619.66
2023-03-05T13:51:19.120Z,101611.66
2023-03-05T13:53:46.342Z,101612.13
2023-03-05T13:56:16.828Z,101611.09
2023-03-05T13:58:53.125Z,101607.03
2023-03-05T14:01:26.775Z,101605.44
2023-03-05T14:03:56.788Z,101603.06
2023-03-05T14:06:29.199Z,101596.78
2023-03-05T14:09:03.477Z,101595.44
2023-03-05T14:11:32.000Z,101594.09
2023-03-05T14:14:06.031Z,101585.59
2023-03-05T14:16:33.782Z,101599.38
2023-03-05T14:19:03.276Z,101592.16
2023-03-05T14:21:45.691Z,101575.38
2023-03-05T14:24:21.565Z,101581.44
2023-03-05T14:26:52.500Z,101577.88
2023-03-05T14:29:23.676Z,101571.56
2023-03-05T14:32:05.225Z,101573.81
2023-03-05T14:34:36.295Z,101567.94
2023-03-05T14:37:07.704Z,101566.34
2023-03-05T14:39:49.495Z,101558.59
2023-03-05T14:42:29.877Z,101557.91
2023-03-05T14:45:00.533Z,101561.59
2023-03-05T14:47:28.732Z,101551.03
2023-03-05T14:49:55.708Z,101549.47
2023-03-05T14:52:25.639Z,101542.81
2023-03-05T14:54:53.370Z,101536.97
2023-03-05T14:57:27.717Z,101533.44
2023-03-05T14:59:55.636Z,101526.34
2023-03-05T15:02:25.524Z,101519.69
2023-03-05T15:04:53.738Z,101533.22
2023-03-05T15:07:31.262Z,101526.25
2023-03-05T15:10:00.300Z,101514.28
2023-03-05T15:12:27.156Z,101511.13
2023-03-05T15:14:56.026Z,101503.84
2023-03-05T15:17:31.745Z,101509.56
2023-03-05T15:19:58.322Z,101503.38
2023-03-05T15:22:25.773Z,101493.34
2023-03-05T15:24:55.839Z,101494.47
2023-03-05T15:27:22.393Z,101494.81
2023-03-05T15:29:50.213Z,101489.41
2023-03-05T15:32:16.991Z,101499.88
2023-03-05T15:34:44.711Z,101487.50
2023-03-05T15:37:12.437Z,101483.19
2023-03-05T15:39:40.428Z,101479.84
2023-03-05T15:42:08.360Z,101484.09
2023-03-05T15:44:35.064Z,101478.25
2023-03-05T15:47:05.141Z,101466.97
2023-03-05T15:49:33.320Z,101465.09
2023-03-05T15:52:01.134Z,101472.84
2023-03-05T15:54:29.153Z,101462.25
2023-03-05T15:56:55.889Z,101467.22
2023-03-05T15:59:25.008Z,101455.16
2023-03-05T16:01:53.178Z,101453.47
2023-03-05T16:04:20.124Z,101453.81
2023-03-05T16:06:49.513Z,101451.00
2023-03-05T16:09:19.754Z,101447.50
2023-03-05T16:11:48.925Z,101444.78
2023-03-05T16:14:19.493Z,101438.16
2023-03-05T16:16:46.648Z,101437.25
2023-03-05T16:19:15.525Z,101437.59
2023-03-05T16:21:43.543Z,101427.00
2023-03-05T16:24:10.464Z,101418.81
2023-03-05T16:26:39.907Z,101426.13
2023-03-05T16:29:06.934Z,101423.75
2023-03-05T16:31:35.472Z,101413.28
2023-03-05T16:34:04.652Z,101419.03
2023-03-05T16:36:32.009Z,101417.13
2023-03-05T16:38:59.488Z,101412.72
2023-03-05T16:41:29.545Z,101405.72
2023-03-05T16:43:56.615Z,101410.03
2023-03-05T16:46:29.804Z,101408.44
2023-03-05T16:48:58.276Z,101403.72
2023-03-05T16:51:25.122Z,101409.00
2023-03-05T16:53:51.712Z,101400.44
2023-03-05T16:56:19.666Z,101399.31
2023-03-05T16:58:46.686Z,101401.25
2023-03-05T17:01:16.726Z,101398.53
2023-03-05T17:03:44.941Z,101395.03
2023-03-05T17:06:15.918Z,101389.53
2023-03-05T17:08:43.623Z,101390.19
2023-03-05T17:11:14.789Z,101393.25
2023-03-05T17:13:45.924Z,101392.44
2023-03-05T17:16:19.601Z,101396.28
2023-03-05T17:18:47.244Z,101394.25
2023-03-05T17:21:16.232Z,101387.59
2023-03-05T17:23:43.386Z,101377.13
2023-03-05T17:26:13.518Z,101385.25
2023-03-05T17:28:40.670Z,101380.94
2023-03-05T17:31:08.132Z,101387.34
2023-03-05T17:33:37.095Z,101383.75
2023-03-05T17:36:06.647Z,101381.41
2023-03-05T17:38:34.353Z,101375.22
2023-03-05T17:41:02.480Z,101381.25
2023-03-05T17:43:29.249Z,101371.16
2023-03-05T17:45:59.639Z,101371.03
2023-03-05T17:48:27.080Z,101372.31
2023-03-05T17:50:55.371Z,101375.38
2023-03-05T17:53:22.932Z,101375.56
2023-03-05T17:55:49.920Z,101370.16
2023-03-05T17:58:20.984Z,101371.63
2023-03-05T18:00:51.524Z,101376.38
2023-03-05T18:03:18.486Z,101367.81
2023-03-05T18:05:47.605Z,101374.69
2023-03-05T18:08:17.099Z,101372.97
2023-03-05T18:10:44.965Z,101366.31
2023-03-05T18:13:12.932Z,101372.53
2023-03-05T18:15:49.648Z,101367.13
2023-03-05T18:18:19.881Z,101369.38
2023-03-05T18:20:48.775Z,101362.38
2023-03-05T18:23:15.770Z,101354.63
2023-03-05T18:25:44.335Z,101356.06
2023-03-05T18:28:13.630Z,101352.91
2023-03-05T18:30:42.091Z,101364.38
2023-03-05T18:33:16.056Z,101357.41
2023-03-05T18:35:42.780Z,101353.59
2023-03-05T18:38:09.598Z,101354.72
2023-03-05T18:40:39.310Z,101356.03
2023-03-05T18:43:06.186Z,101358.59
2023-03-05T18:45:34.952Z,101355.91
2023-03-05T18:48:01.657Z,101347.03
2023-03-05T18:50:31.827Z,101343.88
2023-03-05T18:52:58.506Z,101343.88
2023-03-05T18:55:30.105Z,101338.69
2023-03-05T18:58:00.741Z,101346.19
2023-03-05T19:00:31.474Z,101339.22
2023-03-05T19:03:02.050Z,101329.91
2023-03-05T19:05:33.162Z,101330.09
2023-03-05T19:08:04.116Z,101327.75
2023-03-05T19:13:46.421Z,101321.81
2023-03-05T19:16:43.507Z,101319.44
2023-03-05T19:19:24.962Z,101312.81
2023-03-05T19:21:55.043Z,101312.81
2023-03-05T19:24:27.748Z,101310.09
2023-03-05T19:26:58.152Z,101305.81
2023-03-05T19:29:27.156Z,101308.53
2023-03-05T19:31:57.238Z,101301.09
2023-03-05T19:34:25.757Z,101293.78
2023-03-05T19:36:53.608Z,101290.00
2023-03-05T19:39:20.365Z,101291.09
2023-03-05T19:41:49.213Z,101285.25
2023-03-05T19:44:19.359Z,101279.41
2023-03-05T19:46:51.043Z,101284.34
2023-03-05T19:49:18.884Z,101281.22
2023-03-05T19:51:48.863Z,101277.25
2023-03-05T19:54:17.733Z,101276.00
2023-03-05T19:56:47.808Z,101274.28
2023-03-05T19:59:17.960Z,101272.38
2023-03-05T20:01:45.874Z,101268.81
2023-03-05T20:04:19.073Z,101259.44
2023-03-05T20:06:46.234Z,101259.00
2023-03-05T20:09:15.298Z,101268.66
2023-03-05T20:11:45.927Z,101262.34
2023-03-05T20:14:17.350Z,101256.03
2023-03-05T20:16:54.083Z,101260.66
2023-03-05T20:19:22.334Z,101251.66
2023-03-05T20:21:49.516Z,101257.38
2023-03-05T20:24:18.949Z,101259.94
2023-03-05T20:26:50.221Z,101246.00
2023-03-05T20:29:19.814Z,101251.25
2023-03-05T20:31:51.433Z,101253.94
2023-03-05T20:34:21.774Z,101256.63
2023-03-05T20:36:50.568Z,101255.41
2023-03-05T20:39:20.127Z,101242.59
2023-03-05T20:41:48.546Z,101246.38
2023-03-05T20:44:16.690Z,101242.13
2023-03-05T20:46:59.794Z,101237.53
2023-03-05T20:49:26.641Z,101227.53
2023-03-05T20:51:53.278Z,101232.16
2023-03-05T20:54:21.258Z,101238.66
2023-03-05T20:56:47.976Z,101231.56
2023-03-05T20:59:14.778Z,101231.56
2023-03-05T21:01:41.631Z,101230.78
2023-03-05T21:04:10.318Z,101230.78
2023-03-05T21:06:38.529Z,101222.56
2023-03-05T21:09:06.094Z,101217.97
2023-03-05T21:11:34.002Z,101206.28
2023-03-05T21:14:01.307Z,101205.63
2023-03-05T21:16:29.311Z,101210.81
2023-03-05T21:18:57.364Z,101203.06
2023-03-05T21:21:25.035Z,101202.59
2023-03-05T21:23:52.210Z,101199.56
2023-03-05T21:26:19.162Z,101196.09
2023-03-05T21:28:45.739Z,101193.25
2023-03-05T21:31:31.110Z,101189.34
2023-03-05T21:33:57.999Z,101184.72
2023-03-05T21:36:24.819Z,101183.47
2023-03-05T21:38:51.443Z,101183.03
2023-03-05T21:41:20.655Z,101181.00
2023-03-05T21:43:47.533Z,101175.16
2023-03-05T21:46:14.295Z,101182.31
2023-03-05T21:48:41.049Z,101172.31
2023-03-05T21:51:10.317Z,101173.78
2023-03-05T21:53:38.216Z,101166.69
2023-03-05T21:56:19.166Z,101168.91
2023-03-05T21:58:46.443Z,101165.28
2023-03-05T22:01:25.252Z,101164.41
2023-03-05T22:03:52.048Z,101170.09
2023-03-05T22:06:19.775Z,101161.78
2023-03-05T22:08:52.471Z,101160.97
2023-03-05T22:11:22.173Z,101158.25
2023-03-05T22:13:53.382Z,101151.78
2023-03-05T22:16:25.321Z,101150.19
2023-03-05T22:18:54.018Z,101140.88
2023-03-05T22:21:26.374Z,101141.34
2023-03-05T22:23:55.354Z,101140.09
2023-03-05T22:26:23.019Z,101127.78
2023-03-05T22:28:50.269Z,101127.44
2023-03-05T22:31:21.900Z,101124.41
2023-03-05T22:33:50.221Z,101121.72
2023-03-05T22:36:18.409Z,101115.22
2023-03-05T22:38:47.978Z,101106.69
2023-03-05T22:41:20.877Z,101113.19
2023-03-05T22:43:49.383Z,101111.16
2023-03-05T22:46:22.157Z,101101.72
2023-03-05T22:48:50.142Z,101105.50
2023-03-05T22:51:18.426Z,101103.16
2023-03-05T22:53:45.708Z,101097.00
2023-03-05T22:56:16.427Z,101095.41
2023-03-05T22:58:43.469Z,101095.25
2023-03-05T23:01:17.948Z,101088.63
2023-03-05T23:03:44.735Z,101087.84
2023-03-05T23:06:11.501Z,101086.94
2023-03-05T23:08:38.300Z,101087.91
2023-03-05T23:11:13.454Z,101084.44
2023-03-05T23:13:41.345Z,101077.69
2023-03-05T23:16:09.407Z,101071.53
2023-03-05T23:18:37.118Z,101077.56
2023-03-05T23:21:03.865Z,101075.97
2023-03-05T23:23:31.337Z,101067.44
2023-03-05T23:26:05.057Z,101060.50
2023-03-05T23:28:31.803Z,101065.72
2023-03-05T23:31:00.793Z,101051.38
2023-03-05T23:33:27.453Z,101053.13
2023-03-05T23:36:02.438Z,101054.44
2023-03-05T23:38:30.131Z,101049.25
2023-03-05T23:41:01.242Z,101046.44
2023-03-05T23:43:28.905Z,101051.34
2023-03-05T23:45:56.241Z,101045.50
2023-03-05T23:48:25.756Z,101042.03
2023-03-05T23:50:53.247Z,101041.09
2023-03-05T23:53:22.164Z,101046.69
2023-03-05T23:55:49.349Z,101041.94
2023-03-05T23:58:19.153Z,101041.81
